createdAt,value
2019-04-06T00:00:48.831Z,97759.27
2019-04-06T00:01:53.805Z,97758.97
2019-04-06T00:02:56.183Z,97754.79
2019-04-06T00:03:58.717Z,97751.81
2019-04-06T00:05:00.957Z,97752.77
2019-04-06T00:06:04.744Z,97749.64
2019-04-06T00:07:07.307Z,97747.40
2019-04-06T00:08:09.659Z,97750.91
2019-04-06T00:09:11.507Z,97749.09
2019-04-06T00:10:13.928Z,97750.56
2019-04-06T00:11:16.101Z,97755.64
2019-04-06T00:12:18.317Z,97744.86
2019-04-06T00:13:20.353Z,97753.08
2019-04-06T00:14:22.471Z,97754.46
2019-04-06T00:15:24.678Z,97752.37
2019-04-06T00:16:26.607Z,97744.45
2019-04-06T00:17:28.794Z,97746.30
2019-04-06T00:18:31.104Z,97745.66
2019-04-06T00:19:33.316Z,97744.92
2019-04-06T00:20:35.546Z,97742.06
2019-04-06T00:21:37.664Z,97734.95
2019-04-06T00:22:40.058Z,97735.20
2019-04-06T00:23:42.601Z,97740.03
2019-04-06T00:24:45.036Z,97730.42
2019-04-06T00:25:47.402Z,97729.10
2019-04-06T00:26:49.530Z,97734.27
2019-04-06T00:27:52.028Z,97731.27
2019-04-06T00:28:54.359Z,97734.42
2019-04-06T00:29:56.656Z,97735.45
2019-04-06T00:31:17.012Z,97728.81
2019-04-06T00:32:27.668Z,97735.53
2019-04-06T00:33:31.496Z,97735.09
2019-04-06T00:34:33.402Z,97739.58
2019-04-06T00:35:35.766Z,97737.02
2019-04-06T00:36:38.154Z,97735.00
2019-04-06T00:37:40.457Z,97733.00
2019-04-06T00:38:43.147Z,97733.55
2019-04-06T00:39:45.335Z,97738.33
2019-04-06T00:40:47.688Z,97737.63
2019-04-06T00:41:50.119Z,97741.34
2019-04-06T00:42:52.001Z,97737.63
2019-04-06T00:43:55.537Z,97739.48
2019-04-06T00:44:57.710Z,97742.03
2019-04-06T00:45:59.595Z,97742.88
2019-04-06T00:47:01.937Z,97745.80
2019-04-06T00:48:04.213Z,97746.63
2019-04-06T00:49:06.668Z,97741.86
2019-04-06T00:50:10.087Z,97740.55
2019-04-06T00:51:12.300Z,97735.27
2019-04-06T00:52:14.532Z,97744.52
2019-04-06T00:53:17.069Z,97744.85
2019-04-06T00:54:21.588Z,97740.38
2019-04-06T00:55:23.867Z,97739.08
2019-04-06T00:56:26.395Z,97739.08
2019-04-06T00:57:29.253Z,97735.56
2019-04-06T00:58:31.545Z,97738.54
2019-04-06T00:59:33.997Z,97736.56
2019-04-06T01:00:36.535Z,97736.56
2019-04-06T01:01:39.380Z,97738.05
2019-04-06T01:02:42.187Z,97739.53
2019-04-06T01:03:44.253Z,97732.59
2019-04-06T01:04:46.568Z,97738.34
2019-04-06T01:05:48.918Z,97738.53
2019-04-06T01:06:51.351Z,97741.14
2019-04-06T01:07:53.630Z,97736.50
2019-04-06T01:08:55.927Z,97743.05
2019-04-06T01:09:58.205Z,97734.84
2019-04-06T01:11:00.558Z,97736.67
2019-04-06T01:12:02.962Z,97737.84
2019-04-06T01:13:04.881Z,97735.50
2019-04-06T01:14:07.005Z,97740.12
2019-04-06T01:15:09.836Z,97746.69
2019-04-06T01:16:12.834Z,97741.69
2019-04-06T01:17:15.340Z,97741.84
2019-04-06T01:18:17.300Z,97737.77
2019-04-06T01:19:19.318Z,97738.72
2019-04-06T01:20:21.949Z,97742.79
2019-04-06T01:21:23.818Z,97737.37
2019-04-06T01:22:25.692Z,97741.16
2019-04-06T01:23:27.937Z,97736.92
2019-04-06T01:24:30.259Z,97739.30
2019-04-06T01:25:33.952Z,97744.00
2019-04-06T01:26:37.809Z,97739.58
2019-04-06T01:27:39.758Z,97745.86
2019-04-06T01:28:41.926Z,97741.66
2019-04-06T01:29:44.351Z,97741.98
2019-04-06T01:30:46.706Z,97744.36
2019-04-06T01:31:49.180Z,97739.80
2019-04-06T01:32:51.340Z,97741.29
2019-04-06T01:33:53.086Z,97741.05
2019-04-06T01:34:55.408Z,97746.85
2019-04-06T01:35:58.959Z,97744.33
2019-04-06T01:37:01.100Z,97745.64
2019-04-06T01:38:03.153Z,97743.70
2019-04-06T01:39:05.495Z,97738.30
2019-04-06T01:40:08.060Z,97738.77
2019-04-06T01:41:10.388Z,97743.14
2019-04-06T01:42:12.225Z,97744.69
2019-04-06T01:43:14.427Z,97741.22
2019-04-06T01:44:16.860Z,97736.70
2019-04-06T01:45:19.085Z,97741.62
2019-04-06T01:46:20.815Z,97739.84
2019-04-06T01:47:23.155Z,97738.77
2019-04-06T01:48:25.466Z,97736.67
2019-04-06T01:49:27.315Z,97740.11
2019-04-06T01:50:29.609Z,97739.73
2019-04-06T01:51:33.373Z,97733.52
2019-04-06T01:52:35.329Z,97728.49
2019-04-06T01:53:37.525Z,97735.04
2019-04-06T01:54:39.668Z,97731.66
2019-04-06T01:55:41.923Z,97732.14
2019-04-06T01:56:44.029Z,97729.66
2019-04-06T01:57:46.056Z,97732.36
2019-04-06T01:58:48.331Z,97729.55
2019-04-06T01:59:50.457Z,97730.05
2019-04-06T02:01:10.029Z,97728.81
2019-04-06T02:02:16.896Z,97732.54
2019-04-06T02:03:19.011Z,97729.29
2019-04-06T02:04:20.735Z,97733.84
2019-04-06T02:05:23.067Z,97738.15
2019-04-06T02:06:25.153Z,97736.14
2019-04-06T02:07:27.563Z,97729.98
2019-04-06T02:08:29.867Z,97730.55
2019-04-06T02:09:31.838Z,97729.45
2019-04-06T02:10:33.957Z,97733.78
2019-04-06T02:11:36.592Z,97741.50
2019-04-06T02:12:38.366Z,97738.38
2019-04-06T02:13:40.470Z,97733.47
2019-04-06T02:14:42.778Z,97737.78
2019-04-06T02:15:44.634Z,97735.57
2019-04-06T02:16:47.698Z,97733.53
2019-04-06T02:17:49.961Z,97729.11
2019-04-06T02:18:52.422Z,97729.79
2019-04-06T02:19:54.611Z,97738.00
2019-04-06T02:20:56.846Z,97740.76
2019-04-06T02:21:58.658Z,97736.92
2019-04-06T02:23:01.021Z,97736.59
2019-04-06T02:24:03.407Z,97746.88
2019-04-06T02:25:06.282Z,97739.48
2019-04-06T02:26:08.639Z,97738.44
2019-04-06T02:27:10.394Z,97733.99
2019-04-06T02:28:12.705Z,97737.68
2019-04-06T02:29:14.808Z,97733.29
2019-04-06T02:30:24.536Z,97730.84
2019-04-06T02:31:45.091Z,97729.17
2019-04-06T02:33:01.185Z,97728.13
2019-04-06T02:34:18.855Z,97736.08
2019-04-06T02:35:38.229Z,97728.19
2019-04-06T02:36:58.963Z,97724.28
2019-04-06T02:38:19.509Z,97723.85
2019-04-06T02:39:23.651Z,97728.34
2019-04-06T02:40:27.859Z,97729.02
2019-04-06T02:41:44.980Z,97731.13
2019-04-06T02:42:55.145Z,97731.02
2019-04-06T02:43:57.447Z,97727.09
2019-04-06T02:44:59.847Z,97723.98
2019-04-06T02:46:02.488Z,97726.19
2019-04-06T02:47:04.796Z,97720.02
2019-04-06T02:48:07.035Z,97727.02
2019-04-06T02:49:08.914Z,97718.98
2019-04-06T02:50:11.335Z,97722.09
2019-04-06T02:51:13.402Z,97717.41
2019-04-06T02:52:15.953Z,97716.33
2019-04-06T02:53:18.305Z,97718.85
2019-04-06T02:54:20.205Z,97712.97
2019-04-06T02:55:22.096Z,97711.58
2019-04-06T02:56:24.347Z,97715.45
2019-04-06T02:57:26.459Z,97715.27
2019-04-06T02:58:28.218Z,97715.81
2019-04-06T02:59:30.823Z,97715.53
2019-04-06T03:00:32.687Z,97715.78
2019-04-06T03:01:35.361Z,97712.46
2019-04-06T03:02:37.630Z,97719.22
2019-04-06T03:03:39.865Z,97725.22
2019-04-06T03:04:42.849Z,97724.28
2019-04-06T03:05:45.297Z,97725.02
2019-04-06T03:06:47.514Z,97726.52
2019-04-06T03:07:49.642Z,97724.33
2019-04-06T03:08:55.889Z,97719.59
2019-04-06T03:09:58.493Z,97717.71
2019-04-06T03:11:02.277Z,97722.27
2019-04-06T03:12:04.636Z,97722.32
2019-04-06T03:13:06.293Z,97719.34
2019-04-06T03:14:09.062Z,97720.66
2019-04-06T03:15:11.307Z,97716.63
2019-04-06T03:16:13.252Z,97715.14
2019-04-06T03:17:15.506Z,97714.62
2019-04-06T03:18:17.799Z,97721.19
2019-04-06T03:19:20.044Z,97722.59
2019-04-06T03:20:22.141Z,97715.78
2019-04-06T03:21:24.188Z,97722.41
2019-04-06T03:22:26.441Z,97730.13
2019-04-06T03:23:28.497Z,97723.30
2019-04-06T03:24:30.605Z,97729.63
2019-04-06T03:25:32.708Z,97728.78
2019-04-06T03:26:34.850Z,97730.96
2019-04-06T03:27:39.096Z,97732.66
2019-04-06T03:28:41.437Z,97725.48
2019-04-06T03:29:56.398Z,97725.61
2019-04-06T03:30:47.345Z,97727.74
2019-04-06T03:31:51.742Z,97720.97
2019-04-06T03:32:54.059Z,97730.14
2019-04-06T03:33:56.663Z,97720.76
2019-04-06T03:35:00.162Z,97727.70
2019-04-06T03:36:02.602Z,97721.52
2019-04-06T03:37:04.714Z,97726.77
2019-04-06T03:38:07.265Z,97723.44
2019-04-06T03:39:09.487Z,97722.49
2019-04-06T03:40:12.523Z,97731.00
2019-04-06T03:41:14.745Z,97726.88
2019-04-06T03:42:16.901Z,97733.89
2019-04-06T03:43:18.871Z,97736.33
2019-04-06T03:44:21.328Z,97735.06
2019-04-06T03:45:23.313Z,97733.38
2019-04-06T03:46:25.872Z,97730.77
2019-04-06T03:47:28.226Z,97740.06
2019-04-06T03:48:30.542Z,97736.08
2019-04-06T03:49:32.962Z,97735.21
2019-04-06T03:50:35.258Z,97734.63
2019-04-06T03:51:36.950Z,97742.16
2019-04-06T03:52:39.409Z,97735.72
2019-04-06T03:53:41.616Z,97740.05
2019-04-06T03:54:44.084Z,97733.88
2019-04-06T03:55:46.312Z,97738.84
2019-04-06T03:56:48.524Z,97731.12
2019-04-06T03:57:50.566Z,97728.92
2019-04-06T03:58:52.837Z,97729.58
2019-04-06T03:59:55.341Z,97727.14
2019-04-06T04:00:57.033Z,97730.80
2019-04-06T04:01:59.211Z,97726.53
2019-04-06T04:03:01.673Z,97735.20
2019-04-06T04:04:04.019Z,97733.98
2019-04-06T04:05:06.549Z,97729.98
2019-04-06T04:06:08.827Z,97728.97
2019-04-06T04:07:11.396Z,97724.97
2019-04-06T04:08:13.592Z,97724.22
2019-04-06T04:09:15.917Z,97721.17
2019-04-06T04:10:34.738Z,97724.68
2019-04-06T04:11:37.806Z,97724.91
2019-04-06T04:12:41.829Z,97721.48
2019-04-06T04:13:44.384Z,97721.26
2019-04-06T04:14:46.710Z,97725.61
2019-04-06T04:15:48.424Z,97725.80
2019-04-06T04:16:50.600Z,97714.61
2019-04-06T04:17:52.917Z,97720.23
2019-04-06T04:18:55.059Z,97714.64
2019-04-06T04:19:57.501Z,97719.44
2019-04-06T04:21:00.162Z,97708.93
2019-04-06T04:22:03.219Z,97712.55
2019-04-06T04:23:05.519Z,97713.85
2019-04-06T04:24:07.653Z,97710.22
2019-04-06T04:25:09.851Z,97709.70
2019-04-06T04:26:11.894Z,97712.52
2019-04-06T04:27:27.317Z,97712.83
2019-04-06T04:28:18.082Z,97713.67
2019-04-06T04:29:20.091Z,97719.91
2019-04-06T04:30:32.556Z,97714.83
2019-04-06T04:31:25.892Z,97716.83
2019-04-06T04:32:27.994Z,97710.91
2019-04-06T04:33:31.745Z,97716.80
2019-04-06T04:34:33.744Z,97714.84
2019-04-06T04:35:35.926Z,97716.27
2019-04-06T04:36:38.077Z,97717.80
2019-04-06T04:37:40.224Z,97715.77
2019-04-06T04:38:42.514Z,97720.41
2019-04-06T04:39:44.478Z,97718.26
2019-04-06T04:40:46.956Z,97719.25
2019-04-06T04:41:49.211Z,97713.81
2019-04-06T04:42:50.979Z,97713.83
2019-04-06T04:43:55.237Z,97710.03
2019-04-06T04:44:57.587Z,97717.42
2019-04-06T04:45:59.796Z,97713.69
2019-04-06T04:47:02.139Z,97711.86
2019-04-06T04:48:04.265Z,97717.45
2019-04-06T04:49:06.270Z,97714.17
2019-04-06T04:50:09.761Z,97721.42
2019-04-06T04:51:11.913Z,97714.48
2019-04-06T04:52:13.658Z,97717.52
2019-04-06T04:53:16.879Z,97717.13
2019-04-06T04:54:19.290Z,97720.44
2019-04-06T04:55:24.454Z,97709.78
2019-04-06T04:56:26.843Z,97718.17
2019-04-06T04:57:39.669Z,97712.53
2019-04-06T04:58:33.448Z,97717.78
2019-04-06T04:59:35.861Z,97712.15
2019-04-06T05:00:38.145Z,97711.47
2019-04-06T05:01:40.340Z,97707.47
2019-04-06T05:02:42.904Z,97704.75
2019-04-06T05:03:45.534Z,97702.56
2019-04-06T05:04:47.892Z,97700.73
2019-04-06T05:05:53.108Z,97694.24
2019-04-06T05:06:54.842Z,97707.38
2019-04-06T05:07:57.176Z,97705.30
2019-04-06T05:08:59.316Z,97706.49
2019-04-06T05:10:01.344Z,97714.95
2019-04-06T05:11:04.223Z,97718.73
2019-04-06T05:12:06.628Z,97723.70
2019-04-06T05:13:08.540Z,97724.70
2019-04-06T05:14:55.974Z,97729.00
2019-04-06T05:16:12.383Z,97717.48
2019-04-06T05:17:14.717Z,97721.73
2019-04-06T05:18:16.838Z,97724.04
2019-04-06T05:19:19.162Z,97729.61
2019-04-06T05:20:21.243Z,97727.00
2019-04-06T05:21:23.288Z,97733.27
2019-04-06T05:22:26.950Z,97731.41
2019-04-06T05:23:28.932Z,97737.00
2019-04-06T05:24:31.123Z,97728.56
2019-04-06T05:25:33.328Z,97733.66
2019-04-06T05:26:37.868Z,97733.88
2019-04-06T05:27:50.808Z,97737.86
2019-04-06T05:28:43.846Z,97734.33
2019-04-06T05:29:46.256Z,97737.25
2019-04-06T05:30:47.952Z,97741.88
2019-04-06T05:31:50.617Z,97738.63
2019-04-06T05:32:53.043Z,97746.98
2019-04-06T05:33:54.988Z,97742.48
2019-04-06T05:34:58.390Z,97740.80
2019-04-06T05:36:00.769Z,97740.69
2019-04-06T05:37:03.165Z,97742.20
2019-04-06T05:38:05.444Z,97750.35
2019-04-06T05:39:07.657Z,97745.24
2019-04-06T05:40:09.769Z,97741.02
2019-04-06T05:41:13.179Z,97738.77
2019-04-06T05:42:16.245Z,97744.41
2019-04-06T05:43:18.321Z,97735.41
2019-04-06T05:44:20.545Z,97734.40
2019-04-06T05:45:22.728Z,97733.92
2019-04-06T05:46:25.169Z,97732.95
2019-04-06T05:47:27.337Z,97735.98
2019-04-06T05:48:29.595Z,97738.80
2019-04-06T05:49:32.097Z,97730.22
2019-04-06T05:50:34.245Z,97731.28
2019-04-06T05:51:35.983Z,97728.82
2019-04-06T05:52:38.377Z,97735.70
2019-04-06T05:53:40.623Z,97733.11
2019-04-06T05:54:42.317Z,97726.05
2019-04-06T05:55:44.743Z,97724.39
2019-04-06T05:56:47.217Z,97723.50
2019-04-06T05:57:49.631Z,97727.05
2019-04-06T05:58:51.694Z,97722.08
2019-04-06T05:59:54.105Z,97725.69
2019-04-06T06:00:55.800Z,97727.19
2019-04-06T06:01:57.945Z,97720.95
2019-04-06T06:03:00.190Z,97726.34
2019-04-06T06:04:02.572Z,97718.78
2019-04-06T06:05:05.385Z,97718.77
2019-04-06T06:06:07.729Z,97714.47
2019-04-06T06:07:09.664Z,97720.58
2019-04-06T06:08:11.782Z,97706.10
2019-04-06T06:09:14.343Z,97705.31
2019-04-06T06:10:16.189Z,97708.17
2019-04-06T06:11:18.346Z,97706.05
2019-04-06T06:12:20.648Z,97722.95
2019-04-06T06:13:22.778Z,97718.86
2019-04-06T06:14:25.010Z,97710.42
2019-04-06T06:15:27.272Z,97711.67
2019-04-06T06:16:29.776Z,97716.45
2019-04-06T06:17:31.798Z,97716.14
2019-04-06T06:18:34.166Z,97722.20
2019-04-06T06:19:36.519Z,97723.48
2019-04-06T06:20:38.869Z,97727.94
2019-04-06T06:21:41.148Z,97730.59
2019-04-06T06:22:43.417Z,97725.71
2019-04-06T06:23:46.041Z,97729.34
2019-04-06T06:24:48.396Z,97717.91
2019-04-06T06:25:51.484Z,97732.14
2019-04-06T06:26:53.591Z,97726.88
2019-04-06T06:27:57.060Z,97726.33
2019-04-06T06:28:59.409Z,97722.11
2019-04-06T06:30:03.671Z,97720.05
2019-04-06T06:31:05.466Z,97720.80
2019-04-06T06:32:07.931Z,97723.06
2019-04-06T06:33:10.398Z,97717.95
2019-04-06T06:34:13.234Z,97719.58
2019-04-06T06:35:15.433Z,97735.86
2019-04-06T06:36:17.739Z,97723.06
2019-04-06T06:37:21.007Z,97724.17
2019-04-06T06:38:23.165Z,97726.48
2019-04-06T06:39:25.843Z,97727.20
2019-04-06T06:40:27.935Z,97727.88
2019-04-06T06:41:30.385Z,97723.21
2019-04-06T06:42:32.808Z,97737.20
2019-04-06T06:43:35.892Z,97740.02
2019-04-06T06:44:37.957Z,97739.49
2019-04-06T06:45:39.969Z,97740.53
2019-04-06T06:46:42.353Z,97744.58
2019-04-06T06:47:44.501Z,97738.33
2019-04-06T06:48:46.816Z,97737.41
2019-04-06T06:49:49.043Z,97745.33
2019-04-06T06:50:51.515Z,97749.88
2019-04-06T06:51:53.450Z,97748.16
2019-04-06T06:52:55.695Z,97745.13
2019-04-06T06:53:58.344Z,97741.59
2019-04-06T06:55:00.034Z,97744.62
2019-04-06T06:56:02.728Z,97740.44
2019-04-06T06:57:04.978Z,97741.30
2019-04-06T06:58:07.171Z,97742.72
2019-04-06T06:59:09.735Z,97738.61
2019-04-06T07:00:13.483Z,97738.10
2019-04-06T07:01:16.009Z,97743.70
2019-04-06T07:02:18.314Z,97742.81
2019-04-06T07:03:20.680Z,97745.17
2019-04-06T07:04:22.853Z,97743.02
2019-04-06T07:05:25.011Z,97741.03
2019-04-06T07:06:26.914Z,97744.88
2019-04-06T07:07:29.848Z,97745.34
2019-04-06T07:08:31.874Z,97741.81
2019-04-06T07:09:34.185Z,97738.05
2019-04-06T07:10:38.072Z,97738.80
2019-04-06T07:11:40.138Z,97742.70
2019-04-06T07:12:42.375Z,97734.23
2019-04-06T07:13:44.542Z,97732.39
2019-04-06T07:14:47.046Z,97734.78
2019-04-06T07:15:49.787Z,97738.44
2019-04-06T07:16:52.272Z,97743.01
2019-04-06T07:17:54.680Z,97737.33
2019-04-06T07:18:56.494Z,97752.20
2019-04-06T07:19:58.753Z,97747.62
2019-04-06T07:21:01.944Z,97743.71
2019-04-06T07:22:04.462Z,97753.84
2019-04-06T07:23:06.846Z,97757.56
2019-04-06T07:24:08.743Z,97749.20
2019-04-06T07:25:11.135Z,97751.16
2019-04-06T07:26:13.313Z,97750.42
2019-04-06T07:27:15.427Z,97750.42
2019-04-06T07:28:17.574Z,97752.80
2019-04-06T07:29:19.692Z,97746.86
2019-04-06T07:30:21.653Z,97736.21
2019-04-06T07:31:23.909Z,97740.23
2019-04-06T07:32:26.042Z,97748.80
2019-04-06T07:33:28.375Z,97745.97
2019-04-06T07:34:30.551Z,97749.95
2019-04-06T07:35:33.263Z,97751.36
2019-04-06T07:36:35.892Z,97754.06
2019-04-06T07:37:38.027Z,97756.78
2019-04-06T07:38:40.561Z,97754.24
2019-04-06T07:39:42.499Z,97749.22
2019-04-06T07:40:44.885Z,97740.28
2019-04-06T07:41:47.273Z,97752.05
2019-04-06T07:42:49.059Z,97740.48
2019-04-06T07:43:51.353Z,97744.59
2019-04-06T07:44:53.668Z,97745.75
2019-04-06T07:45:55.609Z,97740.80
2019-04-06T07:46:57.873Z,97743.46
2019-04-06T07:47:59.991Z,97747.20
2019-04-06T07:49:08.575Z,97743.88
2019-04-06T07:50:08.767Z,97746.77
2019-04-06T07:51:12.131Z,97746.17
2019-04-06T07:52:14.533Z,97738.16
2019-04-06T07:53:16.587Z,97744.20
2019-04-06T07:54:19.098Z,97738.39
2019-04-06T07:55:21.500Z,97745.44
2019-04-06T07:56:24.007Z,97742.02
2019-04-06T07:57:26.047Z,97742.34
2019-04-06T07:58:28.511Z,97748.00
2019-04-06T07:59:30.959Z,97749.33
2019-04-06T08:00:33.030Z,97753.47
2019-04-06T08:01:35.630Z,97750.13
2019-04-06T08:02:37.966Z,97756.84
2019-04-06T08:03:40.488Z,97749.25
2019-04-06T08:04:42.396Z,97760.36
2019-04-06T08:05:44.599Z,97751.27
2019-04-06T08:06:47.103Z,97751.55
2019-04-06T08:07:49.261Z,97747.49
2019-04-06T08:08:51.647Z,97753.52
2019-04-06T08:09:55.294Z,97740.89
2019-04-06T08:10:57.431Z,97745.31
2019-04-06T08:11:59.592Z,97743.80
2019-04-06T08:13:01.384Z,97738.33
2019-04-06T08:14:03.872Z,97749.09
2019-04-06T08:15:07.729Z,97746.55
2019-04-06T08:16:09.450Z,97746.34
2019-04-06T08:17:11.805Z,97754.69
2019-04-06T08:18:14.159Z,97754.28
2019-04-06T08:19:18.499Z,97747.40
2019-04-06T08:20:20.662Z,97744.63
2019-04-06T08:21:22.613Z,97743.20
2019-04-06T08:22:24.592Z,97743.42
2019-04-06T08:23:26.912Z,97739.92
2019-04-06T08:24:29.134Z,97738.44
2019-04-06T08:25:31.442Z,97741.89
2019-04-06T08:26:33.716Z,97738.63
2019-04-06T08:27:37.199Z,97735.63
2019-04-06T08:28:40.339Z,97738.98
2019-04-06T08:29:44.415Z,97733.98
2019-04-06T08:30:47.134Z,97732.02
2019-04-06T08:31:49.634Z,97733.42
2019-04-06T08:32:51.790Z,97744.45
2019-04-06T08:33:53.483Z,97741.88
2019-04-06T08:34:55.735Z,97745.98
2019-04-06T08:35:57.996Z,97748.94
2019-04-06T08:36:59.703Z,97751.42
2019-04-06T08:38:03.361Z,97755.64
2019-04-06T08:39:07.536Z,97758.84
2019-04-06T08:40:09.996Z,97757.39
2019-04-06T08:41:12.956Z,97756.38
2019-04-06T08:42:14.924Z,97754.73
2019-04-06T08:43:17.178Z,97756.40
2019-04-06T08:44:19.782Z,97755.97
2019-04-06T08:45:21.971Z,97751.77
2019-04-06T08:46:24.041Z,97751.62
2019-04-06T08:47:26.627Z,97751.25
2019-04-06T08:48:29.796Z,97752.95
2019-04-06T08:49:31.732Z,97747.05
2019-04-06T08:50:33.807Z,97749.45
2019-04-06T08:51:35.535Z,97748.95
2019-04-06T08:52:38.013Z,97746.91
2019-04-06T08:53:40.279Z,97749.03
2019-04-06T08:54:42.686Z,97743.34
2019-04-06T08:55:44.924Z,97751.86
2019-04-06T08:56:47.256Z,97750.42
2019-04-06T08:57:49.114Z,97747.34
2019-04-06T08:58:51.684Z,97740.83
2019-04-06T08:59:53.818Z,97750.05
2019-04-06T09:00:55.980Z,97750.22
2019-04-06T09:01:58.264Z,97744.13
2019-04-06T09:03:00.680Z,97750.90
2019-04-06T09:04:02.897Z,97743.64
2019-04-06T09:05:07.929Z,97747.50
2019-04-06T09:06:09.924Z,97748.78
2019-04-06T09:07:13.051Z,97748.64
2019-04-06T09:08:15.665Z,97748.08
2019-04-06T09:09:17.987Z,97750.03
2019-04-06T09:10:20.514Z,97751.91
2019-04-06T09:11:22.738Z,97750.42
2019-04-06T09:12:25.664Z,97748.71
2019-04-06T09:13:27.911Z,97747.59
2019-04-06T09:14:30.076Z,97751.08
2019-04-06T09:15:32.052Z,97742.91
2019-04-06T09:16:34.463Z,97738.89
2019-04-06T09:17:36.529Z,97742.57
2019-04-06T09:18:38.833Z,97744.55
2019-04-06T09:19:41.039Z,97745.64
2019-04-06T09:20:43.578Z,97741.92
2019-04-06T09:21:45.939Z,97742.34
2019-04-06T09:22:47.947Z,97732.34
2019-04-06T09:23:50.178Z,97742.07
2019-04-06T09:24:52.378Z,97741.46
2019-04-06T09:25:54.972Z,97732.81
2019-04-06T09:26:57.188Z,97728.52
2019-04-06T09:27:58.978Z,97730.77
2019-04-06T09:29:01.383Z,97728.52
2019-04-06T09:30:06.515Z,97730.17
2019-04-06T09:31:08.844Z,97728.23
2019-04-06T09:32:11.512Z,97725.38
2019-04-06T09:33:14.082Z,97733.05
2019-04-06T09:34:16.757Z,97732.22
2019-04-06T09:35:19.179Z,97736.74
2019-04-06T09:36:21.896Z,97733.38
2019-04-06T09:37:24.245Z,97735.09
2019-04-06T09:38:27.506Z,97737.55
2019-04-06T09:39:30.050Z,97741.25
2019-04-06T09:40:32.848Z,97746.19
2019-04-06T09:41:35.253Z,97743.17
2019-04-06T09:42:37.435Z,97745.65
2019-04-06T09:43:39.827Z,97742.20
2019-04-06T09:44:50.076Z,97733.70
2019-04-06T09:45:52.068Z,97738.63
2019-04-06T09:46:58.096Z,97742.70
2019-04-06T09:48:20.331Z,97749.39
2019-04-06T09:49:33.576Z,97750.34
2019-04-06T09:50:37.870Z,97744.78
2019-04-06T09:51:53.970Z,97742.32
2019-04-06T09:52:57.914Z,97745.76
2019-04-06T09:54:14.595Z,97740.73
2019-04-06T09:55:24.592Z,97745.72
2019-04-06T09:56:26.693Z,97741.47
2019-04-06T09:57:39.797Z,97743.63
2019-04-06T09:58:42.114Z,97743.17
2019-04-06T09:59:59.552Z,97736.11
2019-04-06T10:01:09.058Z,97732.34
2019-04-06T10:02:27.096Z,97741.10
2019-04-06T10:03:48.035Z,97728.02
2019-04-06T10:04:56.360Z,97732.53
2019-04-06T10:06:13.638Z,97736.95
2019-04-06T10:07:29.409Z,97726.70
2019-04-06T10:08:34.491Z,97723.95
2019-04-06T10:09:38.596Z,97727.13
2019-04-06T10:10:43.870Z,97724.98
2019-04-06T10:11:51.154Z,97724.56
2019-04-06T10:13:08.336Z,97722.54
2019-04-06T10:14:21.560Z,97724.06
2019-04-06T10:15:35.575Z,97720.88
2019-04-06T10:16:56.408Z,97725.27
2019-04-06T10:18:17.309Z,97723.94
2019-04-06T10:19:38.155Z,97725.80
2019-04-06T10:20:52.781Z,97724.38
2019-04-06T10:22:04.239Z,97714.34
2019-04-06T10:23:24.588Z,97724.38
2019-04-06T10:24:40.444Z,97711.69
2019-04-06T10:25:44.651Z,97715.37
2019-04-06T10:26:48.668Z,97721.00
2019-04-06T10:27:52.581Z,97718.55
2019-04-06T10:29:13.501Z,97719.88
2019-04-06T10:30:36.309Z,97719.98
2019-04-06T10:31:41.344Z,97719.89
2019-04-06T10:32:48.390Z,97724.63
2019-04-06T10:34:04.323Z,97719.50
2019-04-06T10:35:21.926Z,97714.38
2019-04-06T10:36:42.329Z,97712.45
2019-04-06T10:37:57.279Z,97720.32
2019-04-06T10:39:01.892Z,97717.66
2019-04-06T10:40:20.123Z,97718.06
2019-04-06T10:41:36.290Z,97720.00
2019-04-06T10:42:57.386Z,97715.60
2019-04-06T10:44:04.802Z,97727.59
2019-04-06T10:45:17.929Z,97720.84
2019-04-06T10:46:25.038Z,97707.92
2019-04-06T10:47:46.212Z,97708.55
2019-04-06T10:48:54.625Z,97715.48
2019-04-06T10:50:04.107Z,97715.37
2019-04-06T10:51:10.816Z,97711.08
2019-04-06T10:52:17.151Z,97709.64
2019-04-06T10:53:24.090Z,97705.86
2019-04-06T10:54:28.046Z,97709.45
2019-04-06T10:55:48.697Z,97706.17
2019-04-06T10:56:58.731Z,97701.70
2019-04-06T10:58:18.672Z,97697.59
2019-04-06T10:59:39.111Z,97702.92
2019-04-06T11:00:41.503Z,97701.48
2019-04-06T11:02:02.734Z,97704.14
2019-04-06T11:03:23.694Z,97706.28
2019-04-06T11:04:27.775Z,97700.31
2019-04-06T11:05:32.494Z,97705.45
2019-04-06T11:06:53.290Z,97712.49
2019-04-06T11:08:03.826Z,97711.89
2019-04-06T11:09:09.379Z,97711.02
2019-04-06T11:10:20.997Z,97708.51
2019-04-06T11:11:37.319Z,97712.62
2019-04-06T11:12:57.588Z,97706.67
2019-04-06T11:14:18.405Z,97712.88
2019-04-06T11:15:29.483Z,97700.50
2019-04-06T11:16:38.186Z,97699.81
2019-04-06T11:17:51.251Z,97709.25
2019-04-06T11:18:59.079Z,97701.13
2019-04-06T11:20:08.974Z,97705.63
2019-04-06T11:21:13.405Z,97702.46
2019-04-06T11:23:33.859Z,97691.45
2019-04-06T11:24:36.567Z,97700.56
2019-04-06T11:25:43.561Z,97695.85
2019-04-06T11:26:50.682Z,97694.09
2019-04-06T11:27:54.507Z,97698.92
2019-04-06T11:29:15.116Z,97688.67
2019-04-06T11:30:25.544Z,97684.48
2019-04-06T11:31:45.811Z,97689.17
2019-04-06T11:32:53.514Z,97686.94
2019-04-06T11:34:09.571Z,97688.22
2019-04-06T11:35:13.730Z,97685.39
2019-04-06T11:36:33.748Z,97688.12
2019-04-06T11:37:40.541Z,97684.86
2019-04-06T11:38:53.290Z,97693.96
2019-04-06T11:39:57.180Z,97696.63
2019-04-06T11:41:14.841Z,97695.93
2019-04-06T11:42:24.423Z,97708.16
2019-04-06T11:43:29.750Z,97703.38
2019-04-06T11:44:34.117Z,97708.52
2019-04-06T11:45:40.827Z,97709.16
2019-04-06T11:46:50.482Z,97709.62
2019-04-06T11:48:11.732Z,97715.34
2019-04-06T11:49:31.874Z,97728.38
2019-04-06T11:50:36.805Z,97730.91
2019-04-06T11:51:53.082Z,97723.33
2019-04-06T11:53:03.883Z,97728.94
2019-04-06T11:54:16.553Z,97719.32
2019-04-06T11:55:39.398Z,97716.23
2019-04-06T11:56:46.226Z,97723.63
2019-04-06T11:57:50.100Z,97713.13
2019-04-06T11:58:57.087Z,97712.06
2019-04-06T12:00:02.388Z,97716.48
2019-04-06T12:01:13.538Z,97712.50
2019-04-06T12:02:21.778Z,97707.07
2019-04-06T12:03:25.808Z,97704.97
2019-04-06T12:04:45.992Z,97700.27
2019-04-06T12:06:02.333Z,97705.00
2019-04-06T12:07:13.446Z,97711.93
2019-04-06T12:08:24.659Z,97712.10
2019-04-06T12:09:29.183Z,97706.78
2019-04-06T12:10:31.410Z,97713.78
2019-04-06T12:11:42.863Z,97700.84
2019-04-06T12:12:51.030Z,97696.53
2019-04-06T12:14:11.708Z,97690.32
2019-04-06T12:15:14.057Z,97688.67
2019-04-06T12:16:17.941Z,97688.58
2019-04-06T12:17:25.998Z,97697.89
2019-04-06T12:18:46.602Z,97690.31
2019-04-06T12:19:57.657Z,97702.80
2019-04-06T12:21:18.744Z,97716.20
2019-04-06T12:22:29.237Z,97707.69
2019-04-06T12:23:50.481Z,97698.77
2019-04-06T12:24:54.547Z,97710.55
2019-04-06T12:26:08.930Z,97708.28
2019-04-06T12:27:13.235Z,97698.06
2019-04-06T12:28:15.459Z,97699.50
2019-04-06T12:29:36.605Z,97695.70
2019-04-06T12:30:46.862Z,97702.77
2019-04-06T12:32:08.921Z,97699.89
2019-04-06T12:33:14.003Z,97702.56
2019-04-06T12:34:30.364Z,97694.77
2019-04-06T12:35:34.412Z,97693.30
2019-04-06T12:36:38.204Z,97697.19
2019-04-06T12:37:59.985Z,97691.66
2019-04-06T12:39:07.549Z,97697.19
2019-04-06T12:40:28.710Z,97692.30
2019-04-06T12:41:49.611Z,97693.92